Home   Weather   USA   West Bend   Past weeks
Flag for USA

Past Weather in West Bend, Wisconsin, USA — Yesterday and Last 2 Weeks

Currently: 75 °F. Scattered clouds. (Weather station: West Bend Municipal Airport, USA). See more current weather

Past Weather in West Bend — Graph

°F

West Bend Temperature Yesterday

Maximum temperature yesterday: 75 °F (at 2:35 pm)
Minimum temperature yesterday: 43 °F (at 4:35 am)
Average temperature yesterday: 61 °F

High & Low Weather Summary for the Past Weeks

 TemperatureHumidityPressure
High91 °F (Jun 11, 2:15 pm)100% (Jun 3, 4:35 am)30.18 "Hg (Jun 3, 4:35 am)
Low43 °F (Jun 16, 4:35 am)22% (Jun 4, 6:15 pm)29.78 "Hg (Jun 3, 5:35 pm)
Average72 °F61%29.95 "Hg
* Reported Jun 2 12:15 pm — Jun 17 12:35 pm, West Bend. Weather by CustomWeather, © 2021

Note: Actual official high and low records may vary slightly from our data, if they occured in-between our weather recording intervals... More about our weather records

West Bend Weather History for the Previous 24 Hours

Scroll right to see more
 ConditionsComfort  
Time TempWeatherWind HumidityBarometerVisibility
12:35 pm
Thu, Jun 17
70 °FPartly sunny.5 mph60%29.96 "Hg10 mi
12:15 pm68 °FLight rain. Broken clouds.5 mph60%29.97 "Hg10 mi
11:55 am70 °FHeavy rain. Broken clouds.No wind53%29.97 "Hg7 mi
11:35 am73 °FLight rain. Scattered clouds.9 mph38%29.97 "Hg10 mi
11:15 am79 °FSunny.12 mph30%29.97 "Hg10 mi
10:55 am79 °FSunny.9 mph30%29.96 "Hg10 mi
10:35 am77 °FSunny.7 mph30%29.96 "Hg10 mi
10:15 am73 °FSunny.7 mph33%29.96 "Hg10 mi
9:55 am72 °FScattered clouds.8 mph36%29.95 "Hg10 mi
9:35 am72 °FSunny.5 mph33%29.98 "Hg10 mi
9:15 am73 °FSunny.6 mph31%30.00 "Hg10 mi
8:55 am72 °FSunny.6 mph31%30.00 "Hg10 mi
8:15 am68 °FSunny.6 mph35%29.99 "Hg10 mi
7:55 am66 °FSunny.7 mph37%29.99 "Hg10 mi
7:35 am64 °FSunny.6 mph37%29.99 "Hg10 mi
7:15 am63 °FSunny.3 mph39%29.98 "Hg10 mi
6:55 am59 °FSunny.3 mph48%29.99 "Hg10 mi
6:35 am55 °FSunny.No wind67%30.00 "Hg10 mi
5:55 am50 °FSunny.No wind82%30.01 "Hg10 mi
5:35 am46 °FSunny.No wind93%30.00 "Hg10 mi
5:15 am46 °FSunny.No wind93%30.00 "Hg10 mi
4:55 am48 °FClear.No wind87%30.00 "Hg10 mi
4:35 am48 °FClear.No wind87%30.00 "Hg10 mi
4:15 am48 °FClear.No wind94%29.99 "Hg10 mi
3:55 am48 °FClear.No wind87%30.01 "Hg10 mi
3:35 am50 °FClear.No wind82%30.02 "Hg10 mi
3:15 am48 °FClear.No wind87%30.03 "Hg10 mi
2:55 am50 °FClear.No wind82%30.03 "Hg10 mi
2:35 am50 °FClear.No wind82%30.03 "Hg10 mi
2:15 am50 °FClear.No wind76%30.04 "Hg10 mi
1:55 am50 °FClear.No wind82%30.03 "Hg10 mi
1:35 am50 °FClear.No wind82%30.03 "Hg10 mi
1:15 am50 °FClear.No wind88%30.03 "Hg10 mi
12:55 am50 °FClear.No wind82%30.03 "Hg10 mi
12:35 am50 °FClear.No wind88%30.04 "Hg10 mi
12:15 am52 °FClear.No wind82%30.05 "Hg10 mi
11:55 pm
Wed, Jun 16
52 °FClear.No wind82%30.05 "Hg10 mi
11:35 pm52 °FClear.No wind77%30.05 "Hg10 mi
11:15 pm52 °FClear.No wind72%30.05 "Hg10 mi
10:55 pm54 °FClear.No wind67%30.05 "Hg10 mi
10:35 pm54 °FClear.No wind67%30.05 "Hg10 mi
9:55 pm55 °FClear.3 mph63%30.06 "Hg10 mi
9:35 pm59 °FClear.No wind51%30.06 "Hg10 mi
9:15 pm59 °FClear.No wind51%30.06 "Hg10 mi
8:55 pm61 °FClear.No wind48%30.05 "Hg10 mi
8:35 pm63 °FClear.No wind39%30.05 "Hg10 mi
8:15 pm64 °FSunny.3 mph34%30.05 "Hg10 mi
7:55 pm64 °FSunny.5 mph32%30.05 "Hg10 mi
7:35 pm68 °FSunny.5 mph30%30.05 "Hg10 mi
7:15 pm68 °FSunny.6 mph28%30.05 "Hg10 mi
6:55 pm70 °FSunny.6 mph29%30.06 "Hg10 mi
6:35 pm70 °FSunny.5 mph27%30.06 "Hg10 mi
6:15 pm70 °FSunny.6 mph29%30.07 "Hg10 mi
5:55 pm72 °FSunny.8 mph27%30.07 "Hg10 mi
5:35 pm72 °FSunny.9 mph29%30.08 "Hg10 mi
5:15 pm72 °FSunny.7 mph29%30.08 "Hg10 mi
4:55 pm73 °FSunny.8 mph27%30.08 "Hg10 mi
4:35 pm73 °FSunny.7 mph27%30.08 "Hg10 mi
4:15 pm73 °FSunny.9 mph27%30.08 "Hg10 mi
3:55 pm73 °FSunny.9 mph27%30.09 "Hg10 mi
3:35 pm75 °FSunny.7 mph27%30.09 "Hg10 mi
3:15 pm73 °FSunny.5 mph29%30.10 "Hg10 mi
2:55 pm75 °FSunny.7 mph27%30.10 "Hg10 mi
2:35 pm75 °FSunny.7 mph25%30.10 "Hg10 mi
1:35 pm73 °FSunny.3 mph25%30.12 "Hg10 mi
1:15 pm72 °FSunny.6 mph29%30.13 "Hg10 mi
Weather by CustomWeather, © 2021

See weather overview